Duluth International Airport
KDLH : rendu visible

Aérodrome :











RETROUVEZ-NOUS SUR...

 
LOGIN :

S'inscrire | Disclaimer

   EN    FR    IT 

 









Légende :    VFR   VFR Marginal   IFR   IFR Intensif   IFR Très Intensif
Visi : 
Plafond : 
>= 8 km
>= 3000ft
5 à 8 km
1000 à 3000 ft
1500m à 5 km
500 à 1000 ft
800 à 1500m
200 à 500 ft
< 800m
< 200 ft
Symboles :   Orages  Brouillard  Fortes neiges  Fortes précipitations  Vent > 20 kt







- Altitude de l'aérodrome : 1428 ft
- Code IATA : DLH


KDLH - Duluth International

DERNIER METAR :
  • 151355Z 12007KT 1/2SM R09/4500V5500FT -DZ FG VV003 13/11 A3000 RMK AO2 TWR VIS 3/4 SLP164 P0000 T01330111 $

METARs EXPIRÉS :
  • 151255Z 12005KT 3/4SM R09/4000V4500FT -DZ BR VV003 13/11 A2999 RMK AO2 DZB15 SLP160 P0000 T01280106 $
  • 151232Z 12006KT 3/4SM R09/4500V5500FT -DZ BR OVC002 12/11 A2998 RMK AO2 TWR VIS 1 DZB15 P0000 T01220106 $
  • 151155Z 10004KT 1SM R09/P6000FT BR OVC003 12/11 A2998 RMK AO2 SLP157 T01220106 10139 20122 53004 $
  • 151139Z 11004KT 2SM BR OVC004 12/10 A2998 RMK AO2 T01220100 $
  • 151129Z 11005KT 2SM BR OVC005 12/10 A2998 RMK AO2 SFC VIS 2 1/2 VIS 1 3/4 RWY 27 T01220100 $

TAF KDLH
Valide du 15 à 13h jusqu'au 16 à 12h UTC


151319Z 1513/1612 11005KT 1/2SM -DZ FG VV003
TEMPO 1513/1514 2SM BR OVC010
FM151500 13005KT P6SM BKN012
FM151800 18007KT P6SM SCT015
FM160600 00000KT 2SM BR FEW002
Pas de NOTAMs connus pour ce terrain.



MET'MAP, la Météo Aéronautique d'un coup d'oeil ! - Copyright ORBIFLY Décembre 2007 - Disclaimer

ORBIFLY MET'MAP TEAM :

Programmation & Développement : Alexandra Zaïnal
Conception & Développement : Baudouin d'Aumeries
Co-Programmation & Développement : Marc-Olivier Méhu
Soutien technique & logistique : Manuel Goepfert

Contact : metmap@orbifly.com




SOURCES & CREDITS :

   NOAA       Earth
Advisory